Time;durP1;ratioP1;P1;durP2;ratioP2;P2;SDS_P1;SDS_P2;PMS_P1;PMS_P2;Temp;Humidity;BMP_temperature;BMP_pressure;BME280_temperature;BME280_humidity;BME280_pressure;Samples;Min_cycle;Max_cycle;Signal;HPM_P1;HPM_P2
2023/04/15 00:00:57;;;;;;;17.50;8.00;;;;;;;9.92;70.31;99389.09;4229433;28;20227;-64
2023/04/15 00:03:24;;;;;;;13.37;7.40;;;;;;;9.90;70.44;99399.22;4227586;28;20304;-64
2023/04/15 00:05:51;;;;;;;12.50;7.23;;;;;;;9.92;70.32;99397.19;4222958;28;20627;-63
2023/04/15 00:08:18;;;;;;;11.87;6.87;;;;;;;9.92;70.45;99390.97;4235666;28;25535;-61
2023/04/15 00:10:45;;;;;;;10.93;7.10;;;;;;;9.98;70.19;99398.41;4217852;28;20614;-62
2023/04/15 00:13:12;;;;;;;12.50;7.00;;;;;;;9.93;70.30;99390.78;4229208;28;20243;-62
2023/04/15 00:15:38;;;;;;;11.57;6.93;;;;;;;9.93;70.27;99388.09;4209666;28;23562;-62
2023/04/15 00:18:06;;;;;;;14.33;8.23;;;;;;;9.89;70.94;99385.88;4213173;28;20309;-63
2023/04/15 00:20:34;;;;;;;12.37;7.20;;;;;;;9.83;70.93;99395.50;4219986;28;20231;-64
2023/04/15 00:23:02;;;;;;;11.93;7.10;;;;;;;9.86;70.94;99400.59;4215298;28;22265;-65
2023/04/15 00:25:30;;;;;;;17.23;8.10;;;;;;;9.87;70.96;99385.19;4226812;28;20807;-64
2023/04/15 00:27:57;;;;;;;11.83;7.77;;;;;;;9.83;71.35;99390.09;4212778;28;20327;-63
2023/04/15 00:30:24;;;;;;;14.27;7.80;;;;;;;9.70;72.71;99390.63;4224893;28;21731;-64
2023/04/15 00:32:51;;;;;;;12.70;7.67;;;;;;;9.73;72.73;99379.47;4222186;28;20311;-64
2023/04/15 00:35:18;;;;;;;17.77;7.90;;;;;;;9.68;74.15;99389.94;4225840;28;20616;-64
2023/04/15 00:37:44;;;;;;;15.97;8.63;;;;;;;9.62;74.62;99390.63;4226211;28;20252;-64
2023/04/15 00:40:12;;;;;;;12.37;8.10;;;;;;;9.48;76.35;99386.69;4221223;28;23526;-63
2023/04/15 00:42:38;;;;;;;16.47;8.67;;;;;;;9.51;76.78;99387.22;4227526;28;21256;-64
2023/04/15 00:45:06;;;;;;;14.23;8.13;;;;;;;9.34;77.52;99382.78;4230289;28;21059;-63
2023/04/15 00:47:32;;;;;;;17.80;8.83;;;;;;;9.24;78.20;99387.50;4221042;28;21555;-62
2023/04/15 00:49:59;;;;;;;15.70;9.23;;;;;;;9.17;78.29;99385.47;4210209;28;22845;-63
2023/04/15 00:52:26;;;;;;;15.70;9.13;;;;;;;9.12;78.09;99387.78;4230904;28;21796;-63
2023/04/15 00:54:52;;;;;;;14.67;8.77;;;;;;;9.23;77.44;99386.63;4225466;28;20242;-64
2023/04/15 00:57:21;;;;;;;15.10;8.53;;;;;;;9.23;77.28;99383.94;4221569;28;20896;-61
2023/04/15 00:59:47;;;;;;;12.77;8.10;;;;;;;9.22;77.30;99384.94;4207154;28;21481;-63
2023/04/15 01:02:14;;;;;;;15.27;8.60;;;;;;;9.23;77.71;99386.63;4228985;28;20231;-61
2023/04/15 01:04:41;;;;;;;13.73;8.17;;;;;;;9.20;77.83;99381.59;4223485;28;20616;-62
2023/04/15 01:07:08;;;;;;;13.67;8.07;;;;;;;9.20;78.27;99387.81;4221533;28;23013;-64
2023/04/15 01:09:34;;;;;;;16.77;9.40;;;;;;;9.14;78.60;99385.78;4210869;28;20304;-63
2023/04/15 01:12:01;;;;;;;17.90;9.77;;;;;;;9.11;79.05;99382.56;4220693;28;20409;-61
2023/04/15 01:14:28;;;;;;;16.07;8.57;;;;;;;9.06;78.68;99385.75;4216753;28;20232;-64
2023/04/15 01:16:55;;;;;;;12.87;8.27;;;;;;;9.08;78.64;99374.78;4208093;28;23589;-63
2023/04/15 01:19:21;;;;;;;18.23;8.80;;;;;;;9.11;78.12;99385.25;4205079;28;20300;-62
2023/04/15 01:21:48;;;;;;;14.83;8.70;;;;;;;9.10;78.83;99381.69;4224121;28;20223;-64
2023/04/15 01:24:17;;;;;;;14.93;9.10;;;;;;;9.17;78.23;99387.31;4211755;28;23732;-64
2023/04/15 01:26:44;;;;;;;18.33;9.43;;;;;;;9.15;78.67;99383.91;4215144;28;20425;-63
2023/04/15 01:29:10;;;;;;;13.27;8.40;;;;;;;9.09;79.28;99376.47;4220805;28;20906;-63
2023/04/15 01:31:37;;;;;;;16.33;9.20;;;;;;;8.97;79.83;99374.09;4220722;28;23505;-62
2023/04/15 01:34:04;;;;;;;15.03;9.27;;;;;;;8.95;80.68;99389.59;4231117;28;20216;-62
2023/04/15 01:36:30;;;;;;;16.60;10.13;;;;;;;8.87;81.67;99385.00;4222330;28;20318;-62
2023/04/15 01:38:57;;;;;;;17.50;10.80;;;;;;;8.82;82.39;99379.25;4221695;28;21076;-60
2023/04/15 01:41:27;;;;;;;16.57;10.07;;;;;;;8.78;82.89;99385.13;4219266;28;20286;-62
2023/04/15 01:43:54;;;;;;;17.87;9.87;;;;;;;8.78;83.13;99383.28;4226542;28;20224;-62
2023/04/15 01:46:21;;;;;;;16.80;10.10;;;;;;;8.70;83.15;99384.09;4221436;28;20239;-63
2023/04/15 01:48:48;;;;;;;16.77;10.13;;;;;;;8.66;83.99;99387.25;4207898;28;21800;-62
2023/04/15 01:51:15;;;;;;;16.83;10.90;;;;;;;8.57;84.23;99389.91;4227385;28;20240;-62
2023/04/15 01:53:42;;;;;;;19.27;11.37;;;;;;;8.53;85.44;99385.84;4224936;28;20705;-65
2023/04/15 01:56:08;;;;;;;22.07;11.90;;;;;;;8.47;85.77;99391.03;4213969;28;20316;-64
2023/04/15 01:58:35;;;;;;;20.23;12.43;;;;;;;8.49;86.22;99389.03;4224389;28;22988;-63
2023/04/15 02:01:02;;;;;;;20.77;11.60;;;;;;;8.52;86.41;99389.56;4222102;28;21017;-63
2023/04/15 02:03:29;;;;;;;19.63;10.50;;;;;;;8.51;86.45;99389.72;4222654;28;20231;-65
2023/04/15 02:05:56;;;;;;;18.73;11.33;;;;;;;8.43;86.85;99387.78;4223583;28;20323;-65
2023/04/15 02:08:23;;;;;;;23.67;12.10;;;;;;;8.33;87.23;99387.91;4220199;28;20303;-63
2023/04/15 02:10:49;;;;;;;20.83;12.40;;;;;;;8.35;87.45;99385.91;4219206;28;20327;-63
2023/04/15 02:13:16;;;;;;;26.37;13.53;;;;;;;8.24;87.96;99384.31;4227642;28;20314;-63
2023/04/15 02:15:49;;;;;;;26.83;13.73;;;;;;;8.24;88.89;99383.44;4229982;28;20257;-62
2023/04/15 02:18:16;;;;;;;24.13;13.50;;;;;;;8.25;88.47;99375.22;4219261;28;20235;-61
2023/04/15 02:20:42;;;;;;;24.40;13.20;;;;;;;8.29;88.42;99378.44;4203659;28;20302;-61
2023/04/15 02:23:10;;;;;;;23.63;13.57;;;;;;;8.22;88.96;99378.22;4225792;28;20601;-63
2023/04/15 02:25:37;;;;;;;28.10;14.50;;;;;;;8.24;89.31;99375.34;4217819;28;21066;-64
2023/04/15 02:28:05;;;;;;;29.93;14.47;;;;;;;8.31;89.04;99378.28;4226147;28;20598;-63
2023/04/15 02:30:32;;;;;;;28.47;15.33;;;;;;;8.26;89.50;99378.75;4232008;28;20227;-63
2023/04/15 02:33:00;;;;;;;27.70;14.37;;;;;;;8.25;89.46;99385.13;4210259;28;21315;-64
2023/04/15 02:35:26;;;;;;;29.20;15.27;;;;;;;8.19;89.72;99375.84;4224317;28;20250;-62
2023/04/15 02:37:53;;;;;;;25.37;14.40;;;;;;;8.20;89.76;99380.22;4222758;28;20315;-62
2023/04/15 02:40:20;;;;;;;32.43;16.27;;;;;;;8.18;90.14;99378.69;4224274;28;20437;-62
2023/04/15 02:42:46;;;;;;;25.60;14.87;;;;;;;8.19;90.35;99370.47;4222112;28;20339;-62
2023/04/15 02:45:13;;;;;;;27.43;15.37;;;;;;;8.23;90.20;99379.91;4223439;28;20688;-64
2023/04/15 02:47:40;;;;;;;28.23;15.87;;;;;;;8.34;89.73;99377.97;4208645;28;20267;-64
2023/04/15 02:50:08;;;;;;;33.67;16.67;;;;;;;8.22;90.00;99372.81;4223660;28;20238;-64
2023/04/15 02:52:34;;;;;;;27.73;15.87;;;;;;;8.20;90.25;99374.81;4225767;28;20242;-64
2023/04/15 02:55:01;;;;;;;31.90;15.70;;;;;;;8.20;90.25;99374.81;4229974;28;20240;-63
2023/04/15 02:57:28;;;;;;;29.40;16.13;;;;;;;8.18;89.43;99378.69;4222256;28;20351;-64
2023/04/15 02:59:55;;;;;;;32.20;16.93;;;;;;;8.23;89.56;99376.38;4220274;28;20247;-65
2023/04/15 03:02:21;;;;;;;29.60;17.50;;;;;;;8.15;89.66;99377.16;4223348;28;20227;-64
2023/04/15 03:04:48;;;;;;;30.17;16.73;;;;;;;8.25;89.86;99375.22;4219614;28;20647;-64
2023/04/15 03:07:16;;;;;;;28.13;16.43;;;;;;;8.30;89.25;99379.28;4241373;28;20238;-64
2023/04/15 03:09:43;;;;;;;30.20;16.90;;;;;;;8.20;89.54;99382.09;4222570;28;20417;-63
2023/04/15 03:12:10;;;;;;;29.60;16.27;;;;;;;8.18;90.08;99376.84;4222165;28;20234;-65
2023/04/15 03:14:36;;;;;;;29.47;16.83;;;;;;;8.30;89.72;99374.75;4223976;28;20222;-64
2023/04/15 03:17:03;;;;;;;27.73;15.67;;;;;;;8.25;89.42;99372.53;4220417;28;21575;-64
2023/04/15 03:19:30;;;;;;;30.37;17.07;;;;;;;8.21;89.67;99371.13;4227594;28;20485;-64
2023/04/15 03:21:57;;;;;;;29.70;17.00;;;;;;;8.24;90.06;99375.34;4220328;28;20231;-64
2023/04/15 03:24:23;;;;;;;28.23;16.13;;;;;;;8.22;89.99;99372.00;4219067;28;20239;-65
2023/04/15 03:26:50;;;;;;;28.93;16.80;;;;;;;8.25;89.38;99368.97;4225303;28;20474;-63
2023/04/15 03:29:17;;;;;;;28.43;16.70;;;;;;;8.36;89.09;99370.53;4201670;28;20418;-65
2023/04/15 03:31:43;;;;;;;27.80;16.13;;;;;;;8.41;88.73;99377.16;4221202;28;21597;-63
2023/04/15 03:34:10;;;;;;;26.43;15.40;;;;;;;8.31;88.69;99368.31;4225034;28;21247;-64
2023/04/15 03:36:36;;;;;;;28.90;15.87;;;;;;;8.29;89.19;99380.28;4225207;28;20603;-63
2023/04/15 03:39:03;;;;;;;25.43;14.30;;;;;;;8.32;89.00;99382.66;4228644;28;20243;-64
2023/04/15 03:41:29;;;;;;;23.37;14.17;;;;;;;8.30;89.02;99377.44;4201179;28;20235;-62
2023/04/15 03:43:56;;;;;;;24.10;14.43;;;;;;;8.32;88.60;99378.09;4229276;28;20406;-64
2023/04/15 03:46:23;;;;;;;26.47;14.77;;;;;;;8.31;89.12;99378.28;4227989;28;20455;-62
2023/04/15 03:48:49;;;;;;;25.50;14.63;;;;;;;8.31;88.74;99373.72;4227678;28;20607;-64
2023/04/15 03:51:16;;;;;;;25.97;14.27;;;;;;;8.31;88.84;99375.59;4229749;28;21491;-64
2023/04/15 03:53:42;;;;;;;25.13;13.87;;;;;;;8.31;88.97;99378.28;4230278;28;20464;-64
2023/04/15 03:56:09;;;;;;;24.00;14.03;;;;;;;8.27;89.08;99385.00;4226920;28;20238;-64
2023/04/15 03:58:36;;;;;;;26.63;13.57;;;;;;;8.34;88.78;99386.06;4230203;28;20729;-64
2023/04/15 04:01:03;;;;;;;24.33;14.07;;;;;;;8.29;88.89;99375.75;4224453;28;20238;-63
2023/04/15 04:03:29;;;;;;;26.77;14.27;;;;;;;8.28;88.52;99381.28;4228708;28;20957;-65
2023/04/15 04:05:56;;;;;;;28.00;14.87;;;;;;;8.30;89.40;99388.22;4226719;28;25392;-63
2023/04/15 04:08:23;;;;;;;24.90;15.63;;;;;;;8.34;89.01;99383.38;4229907;28;20233;-65
2023/04/15 04:10:49;;;;;;;34.23;16.60;;;;;;;8.25;89.42;99386.00;4224247;28;21732;-65
2023/04/15 04:13:16;;;;;;;25.33;15.57;;;;;;;8.30;89.45;99390.94;4222241;28;20524;-66
2023/04/15 04:15:42;;;;;;;25.80;15.60;;;;;;;8.35;89.35;99385.91;4233494;28;20414;-68
2023/04/15 04:18:09;;;;;;;25.67;15.57;;;;;;;8.31;89.33;99392.59;4235432;28;23451;-69
2023/04/15 04:20:35;;;;;;;25.57;15.40;;;;;;;8.33;89.66;99389.75;4223118;28;20224;-73
2023/04/15 04:23:03;;;;;;;27.90;15.60;;;;;;;8.32;89.60;99393.47;4219258;28;20300;-80
2023/04/15 04:25:29;;;;;;;27.53;15.30;;;;;;;8.36;90.09;99386.72;4233106;28;20250;-67
2023/04/15 04:27:56;;;;;;;28.67;16.27;;;;;;;8.28;89.73;99381.28;4222640;28;20543;-69
2023/04/15 04:30:22;;;;;;;27.37;15.17;;;;;;;8.27;89.97;99393.09;4233927;28;20669;-72
2023/04/15 04:32:50;;;;;;;24.30;15.20;;;;;;;8.29;90.03;99393.75;4223093;28;20310;-71
2023/04/15 04:35:17;;;;;;;29.13;16.20;;;;;;;8.23;90.23;99381.78;4225851;28;20770;-71
2023/04/15 04:37:43;;;;;;;27.13;15.67;;;;;;;8.31;90.00;99389.91;4223969;28;21731;-71
2023/04/15 04:40:10;;;;;;;26.47;15.70;;;;;;;8.28;90.47;99389.38;4229480;28;22130;-70
2023/04/15 04:42:37;;;;;;;26.97;16.60;;;;;;;8.27;90.60;99393.94;4220369;28;20342;-69
2023/04/15 04:45:06;;;;;;;31.00;15.37;;;;;;;8.25;90.34;99394.09;4224467;28;20230;-70
2023/04/15 04:47:32;;;;;;;32.13;15.77;;;;;;;8.31;90.48;99394.47;4212358;28;20647;-70
2023/04/15 04:49:59;;;;;;;23.13;15.17;;;;;;;8.35;90.38;99395.81;4219734;28;20231;-68
2023/04/15 04:52:26;;;;;;;26.87;15.57;;;;;;;8.32;90.86;99391.59;4219658;28;21749;-73
2023/04/15 04:54:52;;;;;;;27.47;15.40;;;;;;;8.31;90.29;99387.19;4225810;28;22811;-71
2023/04/15 04:57:19;;;;;;;24.37;15.57;;;;;;;8.28;90.18;99389.38;4209350;28;20945;-69
2023/04/15 04:59:46;;;;;;;26.43;15.83;;;;;;;8.30;90.61;99393.63;4226982;28;21639;-70
2023/04/15 05:02:13;;;;;;;29.43;16.13;;;;;;;8.26;90.83;99386.84;4219574;28;20223;-73
2023/04/15 05:04:40;;;;;;;27.73;14.90;;;;;;;8.28;90.88;99390.22;4229623;28;20235;-74
2023/04/15 05:07:07;;;;;;;25.03;14.20;;;;;;;8.28;91.09;99384.84;4241122;28;21324;-70
2023/04/15 05:09:35;;;;;;;27.83;15.20;;;;;;;8.27;90.95;99399.31;4220294;28;20333;-75
2023/04/15 05:12:05;;;;;;;28.20;15.37;;;;;;;8.21;91.27;99389.16;4231813;28;20238;-72
2023/04/15 05:14:32;;;;;;;33.50;16.70;;;;;;;8.22;91.34;99396.25;4222389;28;21617;-68
2023/04/15 05:16:58;;;;;;;30.27;15.47;;;;;;;8.27;91.20;99391.22;4228567;28;20283;-72
2023/04/15 05:19:25;;;;;;;32.07;16.40;;;;;;;8.31;91.12;99387.19;4232292;28;20231;-71
2023/04/15 05:21:51;;;;;;;26.93;15.90;;;;;;;8.34;90.67;99391.47;4224078;28;23021;-69
2023/04/15 05:24:18;;;;;;;27.03;15.87;;;;;;;8.32;91.06;99398.84;4224453;28;20238;-71
2023/04/15 05:26:45;;;;;;;25.77;15.70;;;;;;;8.25;91.28;99401.31;4225452;28;20414;-68
2023/04/15 05:29:11;;;;;;;25.20;15.67;;;;;;;8.24;91.04;99394.22;4230689;28;20578;-72
2023/04/15 05:31:38;;;;;;;25.90;14.77;;;;;;;8.27;91.10;99391.22;4223645;28;20383;-74
2023/04/15 05:34:05;;;;;;;27.60;14.27;;;;;;;8.33;91.15;99397.84;4223217;28;21218;-69
2023/04/15 05:36:32;;;;;;;27.13;14.03;;;;;;;8.33;91.25;99400.53;4214132;28;20642;-73
2023/04/15 05:38:59;;;;;;;27.07;14.27;;;;;;;8.30;90.83;99400.84;4226331;28;24142;-70
2023/04/15 05:41:26;;;;;;;27.73;15.00;;;;;;;8.29;91.48;99400.03;4225075;28;20238;-72
2023/04/15 05:43:52;;;;;;;25.30;14.47;;;;;;;8.33;91.19;99397.84;4230216;28;20235;-71
2023/04/15 05:46:20;;;;;;;28.67;14.47;;;;;;;8.29;91.40;99405.41;4216580;28;20234;-67
2023/04/15 05:48:47;;;;;;;27.60;14.17;;;;;;;8.31;91.34;99399.84;4235361;28;21116;-67
2023/04/15 05:51:14;;;;;;;27.97;15.07;;;;;;;8.25;91.27;99404.03;4244484;28;21656;-66
2023/04/15 05:53:41;;;;;;;27.53;14.13;;;;;;;8.31;91.75;99402.53;4268063;28;20287;-65
2023/04/15 05:56:07;;;;;;;26.60;14.17;;;;;;;8.34;91.68;99399.53;4259709;28;20268;-64
2023/04/15 05:58:34;;;;;;;24.43;13.47;;;;;;;8.40;91.48;99399.72;4246447;28;20673;-66
2023/04/15 06:01:03;;;;;;;24.43;13.37;;;;;;;8.34;91.53;99403.06;4249831;28;23118;-67
2023/04/15 06:03:30;;;;;;;24.13;12.63;;;;;;;8.38;91.10;99398.22;4224193;28;20564;-67
2023/04/15 06:05:57;;;;;;;24.50;13.40;;;;;;;8.37;91.55;99407.31;4247424;28;20767;-67
2023/04/15 06:08:23;;;;;;;24.70;13.73;;;;;;;8.30;91.73;99408.94;4240731;28;20625;-66
2023/04/15 06:10:50;;;;;;;26.80;13.90;;;;;;;8.25;91.62;99406.72;4252651;28;21889;-66
2023/04/15 06:13:17;;;;;;;26.63;13.60;;;;;;;8.33;91.81;99403.25;4223774;28;20225;-65
2023/04/15 06:15:43;;;;;;;22.67;12.83;;;;;;;8.28;91.49;99405.53;4257503;28;20927;-66
2023/04/15 06:18:10;;;;;;;23.10;13.50;;;;;;;8.33;91.46;99408.63;4242130;28;22590;-66
2023/04/15 06:20:37;;;;;;;27.63;13.00;;;;;;;8.27;91.92;99415.50;4236260;28;20231;-66
2023/04/15 06:23:04;;;;;;;22.07;13.10;;;;;;;8.31;91.58;99416.84;4244799;28;20228;-69
2023/04/15 06:25:31;;;;;;;20.67;12.07;;;;;;;8.32;91.92;99409.63;4222924;28;25428;-67
2023/04/15 06:27:57;;;;;;;24.73;13.37;;;;;;;8.34;91.88;99413.84;4226672;28;20234;-64
2023/04/15 06:30:24;;;;;;;25.77;13.23;;;;;;;8.38;91.78;99411.69;4219991;28;20365;-67
2023/04/15 06:32:51;;;;;;;24.07;13.30;;;;;;;8.37;91.37;99408.16;4227212;28;20238;-67
2023/04/15 06:35:18;;;;;;;25.63;13.10;;;;;;;8.38;91.47;99417.91;4254122;28;20722;-70
2023/04/15 06:37:45;;;;;;;23.80;12.10;;;;;;;8.28;91.47;99411.81;4227832;28;20250;-67
2023/04/15 06:40:12;;;;;;;27.37;13.20;;;;;;;8.39;91.27;99416.09;4234649;28;21417;-66
2023/04/15 06:42:38;;;;;;;23.27;12.23;;;;;;;8.34;91.26;99416.56;4220654;28;20710;-66
2023/04/15 06:45:05;;;;;;;24.87;12.40;;;;;;;8.33;91.40;99431.03;4232686;28;20503;-66
2023/04/15 06:47:32;;;;;;;23.00;11.83;;;;;;;8.32;91.62;99423.94;4230314;28;21756;-66
2023/04/15 06:49:58;;;;;;;22.07;11.93;;;;;;;8.41;91.10;99428.41;4225751;28;22124;-69
2023/04/15 06:52:25;;;;;;;25.03;12.57;;;;;;;8.38;91.75;99430.56;4225260;28;20270;-66
2023/04/15 06:54:52;;;;;;;24.93;14.00;;;;;;;8.35;92.00;99436.25;4215650;28;20242;-69
2023/04/15 06:57:18;;;;;;;26.80;13.13;;;;;;;8.33;92.22;99435.59;4231765;28;20850;-65
2023/04/15 06:59:45;;;;;;;20.57;12.10;;;;;;;8.36;91.97;99427.19;4222716;28;20320;-72
2023/04/15 07:02:13;;;;;;;21.83;11.97;;;;;;;8.32;91.69;99442.00;4224302;28;22240;-70
2023/04/15 07:04:40;;;;;;;24.93;13.10;;;;;;;8.28;92.05;99430.69;4208436;28;20633;-68
2023/04/15 07:07:06;;;;;;;19.07;11.53;;;;;;;8.36;91.95;99435.25;4223968;28;20235;-68
2023/04/15 07:09:33;;;;;;;21.60;12.03;;;;;;;8.35;92.03;99436.25;4226861;28;21170;-66
2023/04/15 07:11:59;;;;;;;24.70;11.67;;;;;;;8.36;91.91;99446.91;4225787;28;20269;-64
2023/04/15 07:14:26;;;;;;;22.13;12.63;;;;;;;8.43;91.93;99449.81;4236635;28;21331;-68
2023/04/15 07:16:53;;;;;;;20.87;12.23;;;;;;;8.41;91.54;99446.44;4225781;28;21220;-68
2023/04/15 07:19:20;;;;;;;24.17;12.23;;;;;;;8.41;91.92;99452.69;4232441;28;20242;-70
2023/04/15 07:21:47;;;;;;;22.27;11.93;;;;;;;8.43;91.78;99446.28;4229509;28;20368;-68
2023/04/15 07:24:16;;;;;;;18.40;11.50;;;;;;;8.30;91.91;99452.09;4225760;28;20261;-69
2023/04/15 07:26:44;;;;;;;23.67;11.53;;;;;;;8.32;92.38;99448.22;4215267;28;20293;-70
2023/04/15 07:29:10;;;;;;;20.63;10.73;;;;;;;8.32;92.01;99453.59;4232997;28;20230;-66
2023/04/15 07:31:38;;;;;;;18.93;11.00;;;;;;;8.37;92.16;99454.00;4233640;28;20244;-72
2023/04/15 07:34:06;;;;;;;19.23;11.23;;;;;;;8.32;92.46;99455.47;4222129;28;20234;-70
2023/04/15 07:36:33;;;;;;;21.80;10.10;;;;;;;8.34;92.80;99446.22;4212507;28;21092;-69
2023/04/15 07:39:02;;;;;;;22.87;11.33;;;;;;;8.40;92.38;99455.53;4235455;28;21249;-70
2023/04/15 07:41:30;;;;;;;20.93;11.67;;;;;;;8.39;92.55;99451.16;4222446;28;20317;-66
2023/04/15 07:43:56;;;;;;;21.63;11.70;;;;;;;8.40;92.84;99450.16;4219305;28;20244;-69
2023/04/15 07:46:23;;;;;;;17.43;10.87;;;;;;;8.39;92.22;99441.19;4232644;28;20224;-68
2023/04/15 07:48:50;;;;;;;18.50;11.27;;;;;;;8.40;91.99;99448.28;4230325;28;20265;-72
2023/04/15 07:51:18;;;;;;;19.07;10.07;;;;;;;8.35;92.55;99449.75;4218989;28;20309;-67
2023/04/15 07:53:44;;;;;;;17.60;10.57;;;;;;;8.31;92.22;99449.22;4241817;28;20250;-80
2023/04/15 07:56:11;;;;;;;18.83;10.67;;;;;;;8.38;92.25;99452.13;4230825;28;20243;-69
2023/04/15 07:58:38;;;;;;;17.30;10.03;;;;;;;8.43;92.33;99457.06;4215779;28;20273;-68
2023/04/15 08:01:04;;;;;;;22.30;10.47;;;;;;;8.35;91.93;99456.00;4220042;28;23363;-72
2023/04/15 08:03:31;;;;;;;18.47;10.67;;;;;;;8.35;92.62;99458.69;4230150;28;21732;-70
2023/04/15 08:05:58;;;;;;;22.67;10.60;;;;;;;8.39;92.27;99446.59;4215731;28;20227;-71
2023/04/15 08:08:26;;;;;;;17.00;9.23;;;;;;;8.43;92.19;99446.28;4227262;28;20565;-75
2023/04/15 08:10:52;;;;;;;16.27;9.83;;;;;;;8.49;92.13;99449.22;4231063;28;20239;-68
2023/04/15 08:13:19;;;;;;;14.53;8.80;;;;;;;8.44;91.87;99447.97;4233381;28;22568;-71
2023/04/15 08:16:12;;;;;;;17.53;9.90;;;;;;;8.40;91.95;99452.84;4231584;28;20239;-76
2023/04/15 08:18:40;;;;;;;14.73;9.00;;;;;;;8.30;91.83;99447.56;4243766;28;20236;-71
2023/04/15 08:21:07;;;;;;;15.77;9.27;;;;;;;8.30;92.39;99447.56;4225857;28;20247;-68
2023/04/15 08:23:33;;;;;;;18.43;9.83;;;;;;;8.36;92.46;99452.31;4224958;28;22427;-74
2023/04/15 08:26:01;;;;;;;13.47;8.63;;;;;;;8.36;92.00;99441.53;4214300;28;20338;-69
2023/04/15 08:28:28;;;;;;;15.03;8.50;;;;;;;8.33;92.35;99444.53;4215910;28;20311;-72
2023/04/15 08:30:55;;;;;;;14.80;8.70;;;;;;;8.36;92.03;99454.13;4225605;28;20860;-72
2023/04/15 08:33:22;;;;;;;14.57;8.77;;;;;;;8.38;92.42;99444.88;4226656;28;22970;-67
2023/04/15 08:35:48;;;;;;;15.03;8.80;;;;;;;8.44;92.45;99450.69;4225345;28;22319;-67
2023/04/15 08:38:15;;;;;;;16.53;9.20;;;;;;;8.49;92.37;99445.69;4221781;28;20534;-70
2023/04/15 08:40:44;;;;;;;20.57;9.40;;;;;;;8.49;92.17;99453.75;4229312;28;20263;-70
2023/04/15 08:43:29;;;;;;;15.00;8.63;;;;;;;8.50;92.26;99459.00;4229797;28;20240;-69
2023/04/15 08:45:59;;;;;;;16.80;9.03;;;;;;;8.54;92.64;99449.59;4216861;28;20427;-72
2023/04/15 08:48:27;;;;;;;19.83;8.43;;;;;;;8.66;91.98;99452.88;4246335;28;20231;-69
2023/04/15 08:50:54;;;;;;;15.37;8.10;;;;;;;8.66;91.81;99452.88;4224321;28;20377;-69
2023/04/15 08:53:21;;;;;;;15.65;9.05;;;;;;;8.67;91.97;99453.72;4220570;28;20419;-67
2023/04/15 08:55:51;;;;;;;12.00;7.47;;;;;;;8.64;91.81;99452.19;4248122;28;20552;-65
2023/04/15 08:58:18;;;;;;;12.20;7.43;;;;;;;8.62;91.75;99461.44;4282714;28;20245;-66
2023/04/15 09:00:47;;;;;;;14.50;7.47;;;;;;;8.72;92.14;99454.09;4272110;28;20231;-66
2023/04/15 09:03:16;;;;;;;16.50;8.03;;;;;;;8.68;92.26;99456.28;4257469;28;20339;-66
2023/04/15 09:05:43;;;;;;;11.33;6.83;;;;;;;8.74;92.13;99462.84;4217591;28;20240;-68
2023/04/15 09:08:09;;;;;;;11.80;6.50;;;;;;;8.67;91.45;99451.88;4206375;28;20232;-65
2023/04/15 09:10:36;;;;;;;12.10;7.23;;;;;;;8.72;91.75;99456.78;4218766;28;20416;-65
2023/04/15 09:13:03;;;;;;;14.33;8.03;;;;;;;8.74;92.32;99456.63;4226609;28;21255;-69
2023/04/15 09:15:31;;;;;;;14.20;7.23;;;;;;;8.83;91.92;99461.91;4230869;28;23630;-67
2023/04/15 09:17:58;;;;;;;10.33;6.40;;;;;;;8.90;91.78;99453.16;4209473;28;20242;-71
2023/04/15 09:20:25;;;;;;;13.83;6.63;;;;;;;8.88;91.88;99458.72;4230472;28;20227;-67
2023/04/15 09:22:52;;;;;;;8.90;6.20;;;;;;;8.95;92.13;99451.69;4229722;28;20643;-68
2023/04/15 09:25:21;;;;;;;9.47;6.10;;;;;;;8.94;91.54;99462.66;4208154;28;21826;-67
2023/04/15 09:28:07;;;;;;;10.37;5.83;;;;;;;8.90;91.49;99463.94;4230389;28;25609;-67
2023/04/15 09:30:34;;;;;;;10.47;6.10;;;;;;;8.91;91.35;99458.41;4218716;28;20235;-71
2023/04/15 09:33:07;;;;;;;8.63;5.73;;;;;;;8.95;91.12;99462.47;4220851;28;20233;-65
2023/04/15 09:35:37;;;;;;;9.87;5.40;;;;;;;8.87;90.80;99457.88;4213854;28;23520;-67
2023/04/15 09:38:08;;;;;;;8.53;4.97;;;;;;;8.86;91.36;99468.81;4212004;28;20279;-66
2023/04/15 09:40:40;;;;;;;8.67;5.50;;;;;;;8.85;91.86;99468.00;4222304;28;20265;-68
2023/04/15 09:43:08;;;;;;;10.50;6.33;;;;;;;8.91;91.88;99466.50;4237342;28;20283;-68
2023/04/15 09:45:35;;;;;;;10.33;6.23;;;;;;;8.91;91.35;99474.63;4224627;28;25750;-69
2023/04/15 09:48:21;;;;;;;11.57;5.80;;;;;;;8.94;92.09;99468.88;4229962;28;20235;-69
2023/04/15 09:50:49;;;;;;;9.70;5.70;;;;;;;8.90;91.25;99470.22;4217151;28;20835;-67
2023/04/15 09:53:20;;;;;;;10.77;5.17;;;;;;;8.94;91.27;99470.75;4232638;28;21722;-66
2023/04/15 09:55:55;;;;;;;9.00;5.60;;;;;;;9.04;91.28;99466.91;4209478;28;20423;-66
2023/04/15 09:58:27;;;;;;;11.83;5.83;;;;;;;9.02;91.59;99470.78;4236103;28;20305;-65
2023/04/15 10:00:55;;;;;;;7.73;5.43;;;;;;;9.09;91.76;99473.66;4231490;28;20292;-69
2023/04/15 10:03:24;;;;;;;7.73;5.17;;;;;;;9.02;91.28;99473.47;4205176;28;20269;-71
2023/04/15 10:05:53;;;;;;;10.80;5.87;;;;;;;9.08;91.49;99483.63;4221063;28;20865;-66
2023/04/15 10:08:22;;;;;;;9.57;6.40;;;;;;;9.23;91.19;99481.16;4225741;28;20783;-70
2023/04/15 10:10:53;;;;;;;10.23;6.50;;;;;;;9.10;91.09;99475.38;4225270;28;20265;-67
2023/04/15 10:13:22;;;;;;;10.57;6.43;;;;;;;9.18;91.36;99475.41;4213752;28;20254;-68
2023/04/15 10:15:56;;;;;;;9.23;5.80;;;;;;;9.16;91.50;99482.81;4212097;28;20236;-69
2023/04/15 10:18:25;;;;;;;9.47;5.73;;;;;;;9.22;91.45;99478.63;4223388;28;20238;-66
2023/04/15 10:20:52;;;;;;;14.30;6.30;;;;;;;9.23;92.03;99477.63;4230783;28;20234;-69
2023/04/15 10:23:21;;;;;;;9.80;5.57;;;;;;;9.35;91.70;99474.47;4223033;28;20284;-66
2023/04/15 10:25:48;;;;;;;7.50;5.00;;;;;;;9.19;91.08;99472.53;4208784;28;20242;-66
2023/04/15 10:28:16;;;;;;;10.47;5.33;;;;;;;9.21;91.35;99475.09;4216596;28;23403;-66
2023/04/15 10:30:42;;;;;;;8.97;5.20;;;;;;;9.22;91.13;99468.66;4208484;28;20237;-67
2023/04/15 10:33:10;;;;;;;13.87;6.23;;;;;;;9.22;91.38;99471.34;4234571;28;21087;-68
2023/04/15 10:35:36;;;;;;;8.80;5.40;;;;;;;9.29;91.31;99469.69;4223213;28;20248;-71
2023/04/15 10:38:36;;;;;;;9.40;5.40;;;;;;;9.28;91.34;99478.84;4211409;28;20297;-66
2023/04/15 10:41:17;;;;;;;8.97;5.93;;;;;;;9.29;91.56;99477.78;4234742;28;20311;-68
2023/04/15 10:43:54;;;;;;;12.57;5.77;;;;;;;9.30;91.29;99474.09;4198424;28;20441;-69
2023/04/15 10:46:44;;;;;;;7.60;5.03;;;;;;;9.31;90.74;99478.50;4220043;28;24367;-67
2023/04/15 10:49:12;;;;;;;7.83;4.67;;;;;;;9.30;90.33;99471.38;4223850;28;21866;-67
2023/04/15 10:51:45;;;;;;;11.07;5.20;;;;;;;9.33;90.83;99475.63;4210421;28;22604;-66
2023/04/15 10:54:35;;;;;;;7.30;4.60;;;;;;;9.26;90.86;99469.19;4237179;28;22337;-66
2023/04/15 10:57:07;;;;;;;9.70;4.77;;;;;;;9.29;90.87;99471.56;4239538;28;20285;-73
2023/04/15 10:59:59;;;;;;;8.80;5.23;;;;;;;9.45;90.70;99478.88;4222756;28;20312;-67
2023/04/15 11:02:42;;;;;;;9.47;4.30;;;;;;;9.40;90.50;99476.69;4224178;28;20445;-69
2023/04/15 11:05:11;;;;;;;8.03;4.53;;;;;;;9.45;90.21;99474.31;4229507;28;20232;-70
2023/04/15 11:07:45;;;;;;;9.93;4.87;;;;;;;9.44;90.50;99474.50;4222742;28;20868;-68
2023/04/15 11:10:12;;;;;;;7.10;4.77;;;;;;;9.36;90.54;99475.31;4229972;28;20232;-69
2023/04/15 11:12:40;;;;;;;8.33;4.57;;;;;;;9.41;91.05;99489.16;4247215;28;20235;-70
2023/04/15 11:15:33;;;;;;;13.67;4.73;;;;;;;9.34;91.49;99480.00;4227992;28;20246;-68
2023/04/15 11:18:23;;;;;;;8.63;4.83;;;;;;;9.33;91.46;99481.88;4212612;28;20227;-68
2023/04/15 11:20:58;;;;;;;12.27;4.77;;;;;;;9.35;91.91;99476.31;4226349;28;21016;-68
2023/04/15 11:23:34;;;;;;;7.87;4.90;;;;;;;9.38;91.24;99480.53;4227548;28;20653;-69
2023/04/15 11:26:09;;;;;;;7.23;4.80;;;;;;;9.34;91.31;99477.31;4219278;28;20706;-69
2023/04/15 11:28:36;;;;;;;10.27;5.33;;;;;;;9.38;91.45;99488.63;4209028;28;20257;-69
2023/04/15 11:31:12;;;;;;;8.47;4.80;;;;;;;9.38;91.57;99489.50;4223817;28;20355;-70
2023/04/15 11:33:57;;;;;;;6.83;4.80;;;;;;;9.31;91.15;99496.56;4226493;28;20699;-68